Time;durP1;ratioP1;P1;durP2;ratioP2;P2;SDS_P1;SDS_P2;PMS_P1;PMS_P2;Temp;Humidity;BMP_temperature;BMP_pressure;BME280_temperature;BME280_humidity;BME280_pressure;Samples;Min_cycle;Max_cycle;Signal;HPM_P1;HPM_P2
2022/12/05 00:01:44;;;;;;;40.30;12.50;;;;;;;2.34;100.00;101598.59;6246754;28;20528;-76
2022/12/05 00:04:47;;;;;;;31.25;11.18;;;;;;;2.35;100.00;101594.25;6246264;28;20056;-76
2022/12/05 00:07:48;;;;;;;25.33;9.90;;;;;;;2.38;100.00;101589.06;6246587;28;20508;-76
2022/12/05 00:10:50;;;;;;;30.15;10.02;;;;;;;2.39;100.00;101583.00;6246171;28;20064;-76
2022/12/05 00:13:52;;;;;;;32.22;11.55;;;;;;;2.41;100.00;101586.47;6246565;28;20045;-76
2022/12/05 00:16:54;;;;;;;29.67;11.27;;;;;;;2.40;100.00;101582.13;6246302;28;20057;-76
2022/12/05 00:19:57;;;;;;;30.15;10.85;;;;;;;2.40;100.00;101584.72;6246125;28;20054;-76
2022/12/05 00:22:58;;;;;;;27.13;11.20;;;;;;;2.36;100.00;101580.41;6246353;28;20520;-75
2022/12/05 00:26:02;;;;;;;29.00;11.02;;;;;;;2.40;100.00;101588.16;6246107;28;20436;-75
2022/12/05 00:29:04;;;;;;;23.88;10.77;;;;;;;2.38;100.00;101583.88;6247550;28;20060;-76
2022/12/05 00:32:06;;;;;;;34.28;12.60;;;;;;;2.39;100.00;101589.03;6250905;28;20493;-76
2022/12/05 00:35:09;;;;;;;25.67;10.93;;;;;;;2.42;100.00;101581.25;6251276;28;20053;-75
2022/12/05 00:38:10;;;;;;;25.67;9.32;;;;;;;2.45;100.00;101578.66;6250976;28;20434;-76
2022/12/05 00:41:15;;;;;;;26.48;9.57;;;;;;;2.42;100.00;101583.84;6251292;28;20053;-76
2022/12/05 00:44:17;;;;;;;29.67;11.00;;;;;;;2.46;100.00;101595.06;6251209;28;20046;-76
2022/12/05 00:47:18;;;;;;;28.88;10.25;;;;;;;2.47;100.00;101591.59;6252377;28;20417;-76
2022/12/05 00:50:21;;;;;;;39.58;12.95;;;;;;;2.45;100.00;101594.22;6251457;28;20413;-75
2022/12/05 00:53:22;;;;;;;28.30;10.68;;;;;;;2.47;100.00;101589.00;6250810;28;20048;-75
2022/12/05 00:56:25;;;;;;;30.15;11.43;;;;;;;2.47;100.00;101589.88;6250960;28;20059;-76
2022/12/05 00:59:27;;;;;;;33.75;12.80;;;;;;;2.51;100.00;101585.53;6251020;28;20523;-76
2022/12/05 01:02:28;;;;;;;33.85;10.63;;;;;;;2.44;100.00;101589.00;6250821;28;20122;-75
2022/12/05 01:05:33;;;;;;;22.75;10.40;;;;;;;2.41;100.00;101594.25;6250906;28;20061;-75
2022/12/05 01:08:35;;;;;;;26.17;10.50;;;;;;;2.45;100.00;101591.63;6251738;28;20049;-76
2022/12/05 01:11:36;;;;;;;31.35;9.73;;;;;;;2.42;100.00;101593.38;6250513;28;20046;-75
2022/12/05 01:14:38;;;;;;;30.38;11.30;;;;;;;2.37;100.00;101595.13;6250325;28;20409;-76
2022/12/05 01:17:39;;;;;;;28.55;11.50;;;;;;;2.35;100.00;101584.75;6250148;28;20049;-76
2022/12/05 01:20:43;;;;;;;28.70;9.27;;;;;;;2.41;100.00;101582.13;6250153;28;20175;-76
2022/12/05 01:23:44;;;;;;;24.50;9.82;;;;;;;2.45;100.00;101586.44;6249785;28;20519;-77
2022/12/05 01:26:46;;;;;;;29.10;11.63;;;;;;;2.48;100.00;101586.38;6249678;28;20045;-76
2022/12/05 01:29:48;;;;;;;23.40;11.07;;;;;;;2.50;100.00;101589.84;6249691;28;20042;-76
2022/12/05 01:32:49;;;;;;;24.15;10.63;;;;;;;2.48;100.00;101586.38;6249640;28;20136;-76
2022/12/05 01:35:52;;;;;;;27.75;10.68;;;;;;;2.43;100.00;101593.34;6249843;28;20119;-76
2022/12/05 01:38:55;;;;;;;21.63;10.88;;;;;;;2.41;100.00;101591.66;6249704;28;20143;-76
2022/12/05 01:41:56;;;;;;;26.30;11.30;;;;;;;2.43;100.00;101595.94;6248777;28;20094;-75
2022/12/05 01:45:07;;;;;;;39.22;12.77;;;;;;;2.40;100.00;101590.75;6249205;28;20484;-76
2022/12/05 01:48:11;;;;;;;27.30;10.20;;;;;;;2.40;100.00;101592.50;6249227;28;20179;-76
2022/12/05 01:51:14;;;;;;;24.23;10.18;;;;;;;2.42;100.00;101588.19;6249237;28;20183;-76
2022/12/05 01:54:18;;;;;;;26.05;11.27;;;;;;;2.34;100.00;101585.63;6248899;28;20500;-76
2022/12/05 01:57:19;;;;;;;31.50;11.40;;;;;;;2.33;100.00;101586.50;6248934;28;20501;-76
2022/12/05 02:00:21;;;;;;;31.73;11.77;;;;;;;2.40;100.00;101601.13;6249025;28;20524;-76
2022/12/05 02:03:23;;;;;;;35.40;12.57;;;;;;;2.43;100.00;101595.09;6249026;28;20164;-76
2022/12/05 02:06:27;;;;;;;31.83;12.07;;;;;;;2.40;100.00;101597.69;6249021;28;20049;-76
2022/12/05 02:09:28;;;;;;;32.53;10.27;;;;;;;2.39;100.00;101596.81;6248718;28;20424;-76
2022/12/05 02:12:30;;;;;;;30.63;10.88;;;;;;;2.42;100.00;101590.78;6248661;28;20053;-76
2022/12/05 02:15:39;;;;;;;30.70;11.55;;;;;;;2.47;100.00;101595.06;6248370;28;20423;-76
2022/12/05 02:18:54;;;;;;;25.17;10.00;;;;;;;2.45;100.00;101589.03;6248597;28;20481;-76
2022/12/05 02:22:16;;;;;;;26.27;9.95;;;;;;;2.45;100.00;101590.72;6248809;28;20497;-76
2022/12/05 02:25:46;;;;;;;26.95;11.05;;;;;;;2.34;100.00;101583.03;6248678;28;20049;-76
2022/12/05 02:29:15;;;;;;;34.65;11.90;;;;;;;2.42;100.00;101580.41;6248209;28;20416;-76
2022/12/05 02:32:20;;;;;;;;;;;;;;;2.41;100.00;101571.75;6218449;28;20049;-75
2022/12/05 02:35:33;;;;;;;20.92;9.82;;;;;;;2.43;100.00;101577.78;6248325;28;19928;-76
2022/12/05 02:38:40;;;;;;;22.23;10.75;;;;;;;2.40;100.00;101575.19;6248501;28;20416;-76
2022/12/05 02:41:50;;;;;;;30.80;12.80;;;;;;;2.47;100.00;101570.84;6248120;28;20056;-76
2022/12/05 02:44:57;;;;;;;25.52;10.50;;;;;;;2.44;100.00;101569.13;6247948;28;20053;-75
2022/12/05 02:48:01;;;;;;;23.27;9.98;;;;;;;2.42;100.00;101568.28;6248102;28;20049;-76
2022/12/05 02:51:06;;;;;;;27.92;11.10;;;;;;;2.42;100.00;101565.69;6248212;28;20053;-76
2022/12/05 02:54:11;;;;;;;28.67;9.80;;;;;;;2.43;100.00;101569.16;6247374;28;20513;-77
2022/12/05 02:57:14;;;;;;;25.33;10.35;;;;;;;2.41;100.00;101568.31;6272347;22;20057;-73
2022/12/05 03:00:17;;;;;;;20.45;9.77;;;;;;;2.40;100.00;101569.16;6197930;28;20100;-73
2022/12/05 03:03:22;;;;;;;29.23;12.10;;;;;;;2.36;100.00;101564.84;6212279;28;20056;-73
2022/12/05 03:06:27;;;;;;;29.20;9.98;;;;;;;2.43;100.00;101558.75;6219666;28;20058;-73
2022/12/05 03:09:34;;;;;;;29.25;11.68;;;;;;;2.44;100.00;101566.53;6198772;28;20050;-73
2022/12/05 03:12:41;;;;;;;29.30;9.65;;;;;;;2.44;100.00;101561.34;6198493;28;20046;-73
2022/12/05 03:15:48;;;;;;;26.65;10.55;;;;;;;2.40;100.00;101563.97;6198468;28;20509;-73
2022/12/05 03:18:55;;;;;;;27.35;10.52;;;;;;;2.42;100.00;101567.44;6198541;28;20050;-73
2022/12/05 03:22:01;;;;;;;22.05;10.05;;;;;;;2.46;100.00;101561.34;6198240;28;20494;-73
2022/12/05 03:25:03;;;;;;;30.27;10.55;;;;;;;2.45;100.00;101563.09;6198293;28;20042;-73
2022/12/05 03:28:12;;;;;;;30.60;11.10;;;;;;;2.42;100.00;101568.28;6198173;28;20506;-73
2022/12/05 03:31:17;;;;;;;38.00;11.88;;;;;;;2.44;100.00;101571.72;6196963;28;20081;-73
2022/12/05 03:34:28;;;;;;;25.75;10.77;;;;;;;2.48;100.00;101569.97;6198254;28;20046;-73
2022/12/05 03:37:39;;;;;;;25.67;10.77;;;;;;;2.43;100.00;101575.19;6198103;28;20053;-73
2022/12/05 03:40:47;;;;;;;29.05;10.77;;;;;;;2.44;100.00;101576.91;6198336;28;20054;-73
2022/12/05 03:43:54;;;;;;;32.47;11.02;;;;;;;2.43;100.00;101572.59;6197888;28;20054;-73
2022/12/05 03:47:01;;;;;;;19.00;8.30;;;;;;;2.47;100.00;101579.50;6198194;28;20057;-73
2022/12/05 03:50:11;;;;;;;22.23;10.35;;;;;;;2.44;100.00;101576.03;6197934;28;20197;-73
2022/12/05 03:53:17;;;;;;;26.13;10.65;;;;;;;2.48;100.00;101580.34;6198149;28;20054;-72
2022/12/05 03:56:24;;;;;;;23.83;9.60;;;;;;;2.49;100.00;101584.66;6197711;28;20046;-72
2022/12/05 03:59:32;;;;;;;27.60;9.80;;;;;;;2.47;100.00;101584.69;6197715;28;20053;-71
2022/12/05 04:02:44;;;;;;;22.52;9.55;;;;;;;2.46;100.00;101580.38;6197858;28;20062;-71
2022/12/05 04:05:50;;;;;;;23.85;9.20;;;;;;;2.44;100.00;101584.69;6197645;28;20050;-73
2022/12/05 04:08:55;;;;;;;26.85;9.82;;;;;;;2.36;100.00;101580.41;6198149;28;20054;-73
2022/12/05 04:12:02;;;;;;;27.88;10.05;;;;;;;2.45;100.00;101581.25;6197886;28;20047;-73
2022/12/05 04:15:08;;;;;;;23.08;9.30;;;;;;;2.46;100.00;101575.19;6197504;28;20053;-73
2022/12/05 04:18:10;;;;;;;20.75;9.20;;;;;;;2.44;100.00;101581.22;6198055;28;20056;-73
2022/12/05 04:27:56;;;;;;;28.23;9.00;;;;;;;2.52;100.00;101566.47;6177466;28;20140;-73
2022/12/05 04:31:03;;;;;;;18.92;8.65;;;;;;;2.50;100.00;101569.09;6197546;28;20046;-72
2022/12/05 04:34:09;;;;;;;24.95;8.93;;;;;;;2.52;100.00;101571.69;6197258;28;20051;-72
2022/12/05 04:37:18;;;;;;;22.50;9.35;;;;;;;2.51;100.00;101567.38;6197606;28;20140;-74
2022/12/05 04:40:26;;;;;;;21.42;8.63;;;;;;;2.53;100.00;101565.59;6197459;28;20050;-71
2022/12/05 04:43:30;;;;;;;22.25;9.05;;;;;;;2.54;100.00;101565.63;6197602;28;20046;-74
2022/12/05 04:46:32;;;;;;;19.23;8.23;;;;;;;2.48;100.00;101563.03;6197196;28;20050;-74
2022/12/05 04:49:35;;;;;;;21.42;9.50;;;;;;;2.50;100.00;101566.50;6197328;28;20053;-73
2022/12/05 04:52:39;;;;;;;27.58;9.55;;;;;;;2.49;100.00;101567.34;6197356;28;20047;-73
2022/12/05 04:55:46;;;;;;;35.17;10.00;;;;;;;2.51;100.00;101562.19;6197384;28;20046;-74
2022/12/05 04:58:47;;;;;;;31.63;10.00;;;;;;;2.49;100.00;101561.31;6197170;28;20061;-73
2022/12/05 05:01:53;;;;;;;25.83;9.20;;;;;;;2.46;100.00;101559.63;6197205;28;20050;-74
2022/12/05 05:04:57;;;;;;;27.58;9.18;;;;;;;2.51;100.00;101559.56;6196979;28;20050;-72
2022/12/05 05:08:00;;;;;;;20.25;8.75;;;;;;;2.51;100.00;101567.38;6197294;28;20406;-72
2022/12/05 05:11:12;;;;;;;21.48;9.45;;;;;;;2.49;100.00;101564.75;6196887;28;20715;-72
2022/12/05 05:14:13;;;;;;;35.45;10.55;;;;;;;2.49;100.00;101564.75;6196971;28;20422;-72
2022/12/05 05:17:15;;;;;;;32.40;9.43;;;;;;;2.50;100.00;101568.25;6199336;28;20053;-72
2022/12/05 05:20:26;;;;;;;27.77;10.80;;;;;;;2.46;100.00;101572.59;6201490;28;20046;-72
2022/12/05 05:23:28;;;;;;;29.80;11.77;;;;;;;2.47;100.00;101578.63;6201440;28;20054;-72
2022/12/05 05:26:32;;;;;;;27.65;10.35;;;;;;;2.45;100.00;101568.28;6201364;28;20058;-72
2022/12/05 05:29:34;;;;;;;33.47;10.43;;;;;;;2.48;100.00;101575.16;6201273;28;20054;-72
2022/12/05 05:32:35;;;;;;;26.10;11.07;;;;;;;2.47;100.00;101574.31;6200976;28;20061;-72
2022/12/05 05:35:37;;;;;;;23.10;10.25;;;;;;;2.51;100.00;101573.41;6200989;28;20518;-72
2022/12/05 05:38:42;;;;;;;26.25;10.63;;;;;;;2.52;100.00;101579.47;6200789;28;20498;-72
2022/12/05 05:41:43;;;;;;;20.10;10.25;;;;;;;2.50;100.00;101571.69;6201000;28;20057;-73
2022/12/05 05:44:45;;;;;;;31.20;11.70;;;;;;;2.52;100.00;101574.25;6200612;28;20645;-74
2022/12/05 05:47:48;;;;;;;24.67;10.98;;;;;;;2.46;100.00;101564.81;6200742;28;20057;-74
2022/12/05 05:50:49;;;;;;;28.20;11.40;;;;;;;2.49;100.00;101577.72;6200747;28;20078;-75
2022/12/05 05:53:52;;;;;;;24.95;9.75;;;;;;;2.45;100.00;101576.06;6200510;28;20058;-72
2022/12/05 05:56:54;;;;;;;31.92;11.35;;;;;;;2.41;100.00;101579.53;6200304;28;20047;-72
2022/12/05 05:59:55;;;;;;;26.15;9.02;;;;;;;2.43;100.00;101569.16;6200265;28;20053;-74
2022/12/05 06:02:56;;;;;;;24.80;8.15;;;;;;;2.46;100.00;101582.09;6200290;28;20522;-74
2022/12/05 06:05:58;;;;;;;31.35;12.02;;;;;;;2.43;100.00;101572.59;6200158;28;20043;-74
2022/12/05 06:09:01;;;;;;;32.05;11.95;;;;;;;2.43;100.00;101571.72;6200168;28;20050;-74
2022/12/05 06:12:03;;;;;;;26.25;11.10;;;;;;;2.48;100.00;101575.16;6200043;28;20440;-72
2022/12/05 06:15:05;;;;;;;43.25;15.98;;;;;;;2.44;100.00;101568.25;6199867;28;20053;-72
2022/12/05 06:18:07;;;;;;;29.65;10.40;;;;;;;2.43;100.00;101571.72;6199902;28;20050;-72
2022/12/05 06:21:09;;;;;;;28.33;10.43;;;;;;;2.44;100.00;101574.31;6199996;28;20065;-74
2022/12/05 06:24:12;;;;;;;17.25;7.55;;;;;;;2.38;100.00;101573.50;6199848;28;20569;-74
2022/12/05 06:27:14;;;;;;;20.00;8.70;;;;;;;2.39;100.00;101567.44;6199531;28;20053;-74
2022/12/05 06:30:15;;;;;;;25.90;9.02;;;;;;;2.41;100.00;101576.94;6204963;28;20494;-74
2022/12/05 06:33:17;;;;;;;25.92;11.63;;;;;;;2.39;100.00;101573.47;6199608;28;20521;-72
2022/12/05 06:36:21;;;;;;;21.48;8.60;;;;;;;2.41;100.00;101574.34;6199285;28;20049;-72
2022/12/05 06:39:24;;;;;;;33.50;11.77;;;;;;;2.42;100.00;101577.81;6199494;28;20050;-74
2022/12/05 06:42:25;;;;;;;24.95;10.73;;;;;;;2.42;100.00;101573.47;6202051;28;20510;-74
2022/12/05 06:45:26;;;;;;;30.52;11.00;;;;;;;2.39;100.00;101576.06;6199264;28;20061;-72
2022/12/05 06:48:28;;;;;;;24.15;8.43;;;;;;;2.41;100.00;101576.94;6199212;28;20506;-74
2022/12/05 06:51:29;;;;;;;26.05;9.43;;;;;;;2.39;100.00;101580.41;6199079;28;20169;-74
2022/12/05 06:54:32;;;;;;;25.00;10.68;;;;;;;2.37;100.00;101574.38;6199118;28;20053;-74
2022/12/05 06:57:34;;;;;;;30.98;12.77;;;;;;;2.41;100.00;101576.94;6198895;28;20050;-74
2022/12/05 07:03:54;;;;;;;32.70;11.65;;;;;;;2.45;100.00;101576.06;6198828;28;20054;-74
2022/12/05 07:06:56;;;;;;;21.98;10.63;;;;;;;2.47;100.00;101578.63;6198775;28;20050;-74
2022/12/05 07:09:58;;;;;;;19.65;8.93;;;;;;;2.46;100.00;101579.50;6210279;28;20061;-74
2022/12/05 07:13:00;;;;;;;22.10;8.68;;;;;;;2.47;100.00;101583.81;6223200;28;20053;-73
2022/12/05 07:16:01;;;;;;;18.38;7.97;;;;;;;2.43;100.00;101582.97;6222849;28;20049;-73
2022/12/05 07:19:03;;;;;;;19.88;7.72;;;;;;;2.42;100.00;101589.03;6223051;28;20053;-72
2022/12/05 07:22:05;;;;;;;18.42;7.30;;;;;;;2.43;100.00;101584.69;6222739;28;20046;-72
2022/12/05 07:25:08;;;;;;;22.55;9.80;;;;;;;2.40;100.00;101585.56;6213578;28;20053;-72
2022/12/05 07:28:10;;;;;;;14.95;6.55;;;;;;;2.41;100.00;101586.47;6205959;28;20422;-71
2022/12/05 07:31:14;;;;;;;20.80;8.90;;;;;;;2.41;100.00;101602.03;6198177;28;20058;-72
2022/12/05 07:34:15;;;;;;;15.38;7.40;;;;;;;2.45;100.00;101596.81;6205668;28;20042;-71
2022/12/05 07:37:16;;;;;;;19.92;7.78;;;;;;;2.39;100.00;101599.41;6208385;28;20042;-72
2022/12/05 07:40:19;;;;;;;15.10;6.32;;;;;;;2.33;100.00;101598.59;6207931;28;20045;-74
2022/12/05 07:43:21;;;;;;;15.95;7.25;;;;;;;2.34;100.00;101593.41;6209980;28;20054;-72
2022/12/05 07:46:23;;;;;;;20.63;8.40;;;;;;;2.40;100.00;101598.53;6210004;28;20041;-72
2022/12/05 07:49:24;;;;;;;20.70;7.90;;;;;;;2.39;100.00;101598.56;6208003;28;20065;-75
2022/12/05 07:52:27;;;;;;;15.70;6.53;;;;;;;2.35;100.00;101595.13;6208915;28;20057;-72
2022/12/05 07:55:29;;;;;;;15.18;6.85;;;;;;;2.31;100.00;101600.34;6208380;28;20078;-72
2022/12/05 07:58:32;;;;;;;12.65;5.90;;;;;;;2.31;100.00;101601.19;6207923;28;20057;-72
2022/12/05 08:01:35;;;;;;;17.40;6.95;;;;;;;2.31;100.00;101598.59;6197929;28;20054;-73
2022/12/05 08:04:36;;;;;;;16.23;6.38;;;;;;;2.37;100.00;101593.38;6197907;28;20148;-72
2022/12/05 08:07:38;;;;;;;14.75;7.18;;;;;;;2.27;100.00;101597.78;6197936;28;20054;-72
2022/12/05 08:10:41;;;;;;;15.77;7.70;;;;;;;2.31;100.00;101600.34;6197726;28;20521;-72
2022/12/05 08:13:43;;;;;;;18.95;7.30;;;;;;;2.32;100.00;101605.53;6198009;28;20509;-72
2022/12/05 08:16:45;;;;;;;15.88;6.15;;;;;;;2.29;100.00;101598.63;6197634;28;20050;-73
2022/12/05 08:19:46;;;;;;;15.75;6.13;;;;;;;2.29;100.00;101595.16;6197611;28;20066;-72
2022/12/05 08:22:47;;;;;;;11.88;4.45;;;;;;;2.31;100.00;101605.50;6197735;28;20066;-72
2022/12/05 08:25:50;;;;;;;10.52;5.55;;;;;;;2.28;100.00;101607.28;6197374;28;20394;-73
2022/12/05 08:28:53;;;;;;;19.92;5.07;;;;;;;2.30;100.00;101609.84;6197932;28;20061;-73
2022/12/05 08:31:54;;;;;;;16.08;5.90;;;;;;;2.29;100.00;101613.31;6197669;28;20513;-72
2022/12/05 08:34:56;;;;;;;10.18;4.95;;;;;;;2.32;100.00;101607.22;6197574;28;20052;-72
2022/12/05 08:37:57;;;;;;;14.82;5.07;;;;;;;2.28;100.00;101604.69;6197317;28;20054;-72
2022/12/05 08:41:02;;;;;;;11.13;4.55;;;;;;;2.22;100.00;101609.03;6197365;28;20520;-73
2022/12/05 08:44:06;;;;;;;10.70;5.95;;;;;;;2.25;100.00;101609.00;6197384;28;20050;-72
2022/12/05 08:47:11;;;;;;;13.20;5.18;;;;;;;2.30;100.00;101625.41;6197319;28;20051;-72
2022/12/05 08:50:12;;;;;;;10.43;5.00;;;;;;;2.25;100.00;101617.66;6197973;28;20065;-73
2022/12/05 08:53:14;;;;;;;10.88;5.88;;;;;;;2.26;100.00;101621.09;6202123;28;20057;-73
2022/12/05 08:56:16;;;;;;;11.50;5.53;;;;;;;2.25;100.00;101620.25;6201632;28;20053;-73
2022/12/05 08:59:18;;;;;;;12.90;6.30;;;;;;;2.22;100.00;101630.63;6201856;28;20050;-71
2022/12/05 09:02:20;;;;;;;10.43;6.40;;;;;;;2.20;100.00;101631.50;6201731;28;20054;-71
2022/12/05 09:05:22;;;;;;;10.73;4.90;;;;;;;2.20;100.00;101636.69;6201947;28;20054;-72
2022/12/05 09:08:23;;;;;;;11.85;5.75;;;;;;;2.15;100.00;101636.72;6201530;28;20060;-72
2022/12/05 09:11:28;;;;;;;16.67;5.68;;;;;;;2.16;100.00;101638.44;6201824;28;20427;-71
2022/12/05 09:14:31;;;;;;;8.40;4.90;;;;;;;2.18;100.00;101643.59;6201370;28;20062;-71
2022/12/05 09:17:33;;;;;;;10.20;4.20;;;;;;;2.13;100.00;101643.63;6201086;28;20054;-71
2022/12/05 09:20:34;;;;;;;13.48;6.40;;;;;;;2.14;100.00;101637.59;6201415;28;20058;-70
2022/12/05 09:23:36;;;;;;;11.55;5.97;;;;;;;2.18;100.00;101636.72;6201050;28;20426;-71
2022/12/05 09:26:40;;;;;;;10.32;4.75;;;;;;;2.16;100.00;101630.66;6201304;28;20528;-72
2022/12/05 09:29:42;;;;;;;10.55;5.20;;;;;;;2.17;100.00;101631.53;6203922;28;20050;-71
2022/12/05 09:32:43;;;;;;;11.52;6.22;;;;;;;2.08;100.00;101632.41;6246028;28;20045;-70
2022/12/05 09:35:45;;;;;;;16.27;5.15;;;;;;;2.09;100.00;101635.88;6242055;28;20076;-71
2022/12/05 09:38:47;;;;;;;7.38;4.50;;;;;;;2.13;100.00;101633.25;6249784;28;20050;-71
2022/12/05 09:42:17;;;;;;;12.18;4.75;;;;;;;2.21;100.00;101636.69;6249608;28;20067;-73
2022/12/05 09:45:25;;;;;;;8.70;4.82;;;;;;;2.25;100.00;101634.94;6249568;28;20045;-71
2022/12/05 09:48:27;;;;;;;10.25;5.30;;;;;;;2.22;100.00;101638.41;6234804;28;20053;-71
2022/12/05 09:51:28;;;;;;;14.00;6.45;;;;;;;2.24;100.00;101628.03;6238387;28;20049;-72
2022/12/05 09:54:31;;;;;;;9.90;5.00;;;;;;;2.25;100.00;101635.81;6247807;28;20049;-71
2022/12/05 09:57:38;;;;;;;14.85;6.38;;;;;;;2.35;100.00;101627.97;6233266;28;20050;-71
2022/12/05 10:00:40;;;;;;;9.32;5.05;;;;;;;2.35;100.00;101627.97;6224477;28;20421;-71
2022/12/05 10:03:45;;;;;;;12.63;5.38;;;;;;;2.33;100.00;101622.81;6224208;28;20061;-70
2022/12/05 10:06:55;;;;;;;8.30;4.63;;;;;;;2.37;100.00;101621.91;6224557;28;20558;-70
2022/12/05 10:10:14;;;;;;;13.98;5.70;;;;;;;2.39;100.00;101614.13;6224550;28;20054;-70
2022/12/05 10:13:34;;;;;;;13.77;4.88;;;;;;;2.42;100.00;101611.53;6224588;28;20052;-70
2022/12/05 10:16:42;;;;;;;11.27;5.63;;;;;;;2.42;100.00;101603.75;6224482;28;20528;-70
2022/12/05 10:19:47;;;;;;;7.95;4.07;;;;;;;2.35;100.00;101615.00;6224211;28;20060;-70
2022/12/05 10:22:55;;;;;;;13.02;7.38;;;;;;;2.32;100.00;101609.81;6224355;28;20045;-70
2022/12/05 10:25:59;;;;;;;13.35;7.00;;;;;;;2.35;100.00;101615.00;6224060;28;20056;-70
2022/12/05 10:29:12;;;;;;;10.85;4.78;;;;;;;2.31;100.00;101611.56;6224248;28;20046;-71
2022/12/05 10:32:18;;;;;;;8.38;4.63;;;;;;;2.31;100.00;101616.75;6223867;28;20060;-71
2022/12/05 10:35:22;;;;;;;10.20;5.25;;;;;;;2.31;100.00;101619.34;6224053;28;20433;-71
2022/12/05 10:38:27;;;;;;;10.45;4.95;;;;;;;2.21;100.00;101608.16;6215141;28;20482;-73
2022/12/05 10:41:29;;;;;;;13.25;4.85;;;;;;;2.26;100.00;101606.41;6214608;28;20046;-70
2022/12/05 10:44:33;;;;;;;10.48;5.65;;;;;;;2.21;100.00;101612.50;6219849;28;20060;-70
2022/12/05 10:47:35;;;;;;;11.60;5.55;;;;;;;2.10;100.00;101615.13;6220930;28;20490;-70
2022/12/05 10:50:38;;;;;;;14.98;6.03;;;;;;;2.12;100.00;101610.78;6221957;28;20402;-70
2022/12/05 10:53:42;;;;;;;10.93;5.63;;;;;;;2.10;100.00;101612.56;6221215;28;20050;-70
2022/12/05 10:56:46;;;;;;;12.10;5.18;;;;;;;2.07;100.00;101615.16;6222251;28;20072;-71
2022/12/05 10:59:50;;;;;;;10.48;4.57;;;;;;;2.11;100.00;101614.25;6223028;28;20538;-70
2022/12/05 11:02:51;;;;;;;12.32;5.55;;;;;;;2.14;100.00;101610.81;6223365;28;20494;-70
2022/12/05 11:05:55;;;;;;;9.43;5.65;;;;;;;2.14;100.00;101610.81;6223074;28;20391;-69
2022/12/05 11:08:59;;;;;;;14.15;5.70;;;;;;;2.12;100.00;101608.19;6223084;28;20418;-69
2022/12/05 11:12:06;;;;;;;11.85;5.00;;;;;;;2.13;100.00;101599.56;6223022;28;20050;-70
2022/12/05 11:15:23;;;;;;;9.60;4.70;;;;;;;2.09;100.00;101607.34;6222907;28;20429;-70
2022/12/05 11:18:29;;;;;;;13.43;6.70;;;;;;;2.12;100.00;101595.25;6222658;28;20053;-70
2022/12/05 11:21:42;;;;;;;13.27;6.18;;;;;;;2.15;100.00;101594.38;6222976;28;20068;-70
2022/12/05 11:24:43;;;;;;;12.30;5.95;;;;;;;2.17;100.00;101590.88;6220227;28;20046;-70
2022/12/05 11:27:44;;;;;;;10.25;4.82;;;;;;;2.20;100.00;101590.03;6216957;28;20045;-70
2022/12/05 11:30:57;;;;;;;14.88;6.70;;;;;;;2.17;100.00;101595.22;6215227;28;20053;-71
2022/12/05 11:34:03;;;;;;;8.18;4.78;;;;;;;2.16;100.00;101594.34;6221162;28;20449;-70
2022/12/05 11:37:11;;;;;;;11.82;6.65;;;;;;;2.17;100.00;101593.47;6222167;28;20073;-70
2022/12/05 11:40:16;;;;;;;15.02;6.25;;;;;;;2.13;100.00;101588.31;6222258;28;20469;-70
2022/12/05 11:43:38;;;;;;;12.57;7.15;;;;;;;2.16;100.00;101593.50;6222622;28;20132;-70
2022/12/05 11:46:53;;;;;;;11.55;6.35;;;;;;;2.18;100.00;101586.56;6211124;28;20038;-70
2022/12/05 11:50:15;;;;;;;11.27;4.68;;;;;;;2.19;100.00;101594.34;6206222;28;20038;-70
2022/12/05 11:53:35;;;;;;;13.52;5.93;;;;;;;2.24;100.00;101583.97;6198100;28;20074;-70
2022/12/05 11:56:38;;;;;;;11.25;5.68;;;;;;;2.21;100.00;101590.00;6198091;28;20046;-70
2022/12/05 11:59:59;;;;;;;7.95;4.15;;;;;;;2.17;100.00;101588.28;6208137;28;20046;-69
2022/12/05 12:03:29;;;;;;;10.65;4.97;;;;;;;2.14;100.00;101583.16;6214065;28;20142;-69
2022/12/05 12:06:33;;;;;;;9.82;4.53;;;;;;;2.20;100.00;101584.84;6213772;28;20410;-70
2022/12/05 12:09:45;;;;;;;8.95;4.63;;;;;;;2.22;100.00;101577.91;6221434;28;20053;-69
2022/12/05 12:13:01;;;;;;;11.65;6.05;;;;;;;2.24;100.00;101586.56;6221257;28;20056;-70
2022/12/05 12:16:15;;;;;;;8.20;4.93;;;;;;;2.26;100.00;101587.38;6216695;28;20054;-69
2022/12/05 12:19:34;;;;;;;9.18;4.22;;;;;;;2.26;100.00;101593.44;6221498;28;20690;-70
2022/12/05 12:23:01;;;;;;;14.32;5.47;;;;;;;2.27;100.00;101590.00;6221825;28;20064;-70
2022/12/05 12:26:12;;;;;;;9.60;4.13;;;;;;;2.27;100.00;101594.28;6224031;28;20567;-70
2022/12/05 12:29:27;;;;;;;8.57;4.82;;;;;;;2.28;100.00;101585.66;6218340;28;20046;-70
2022/12/05 12:32:35;;;;;;;15.25;5.45;;;;;;;2.25;100.00;101588.28;6219818;28;20050;-71
2022/12/05 12:35:49;;;;;;;8.93;5.13;;;;;;;2.26;100.00;101577.88;6209021;28;20053;-71
2022/12/05 12:39:04;;;;;;;9.63;5.75;;;;;;;2.17;100.00;101577.94;6226157;28;20038;-71
2022/12/05 12:42:17;;;;;;;12.40;4.68;;;;;;;2.16;100.00;101581.41;6226516;28;20052;-70
2022/12/05 12:46:03;;;;;;;7.38;4.45;;;;;;;2.19;100.00;101565.84;6202198;28;20054;-72
2022/12/05 12:49:24;;;;;;;8.73;4.93;;;;;;;2.18;100.00;101565.81;6196022;28;20046;-70
2022/12/05 12:52:47;;;;;;;7.88;4.45;;;;;;;2.20;100.00;101562.38;6226284;28;20072;-70
2022/12/05 12:55:56;;;;;;;12.43;5.07;;;;;;;2.22;100.00;101559.75;6226071;28;20508;-70
2022/12/05 12:59:05;;;;;;;10.90;4.67;;;;;;;2.25;100.00;101558.00;6226221;28;20045;-73
2022/12/05 13:02:16;;;;;;;7.38;4.15;;;;;;;2.28;100.00;101558.00;6225688;28;20419;-71
2022/12/05 13:05:23;;;;;;;8.60;4.65;;;;;;;2.30;100.00;101560.56;6226270;28;20482;-71
2022/12/05 13:08:31;;;;;;;7.35;3.83;;;;;;;2.25;100.00;101555.41;6219032;28;20510;-70
2022/12/05 13:11:37;;;;;;;13.32;4.95;;;;;;;2.27;100.00;101560.56;6217496;28;20166;-70
2022/12/05 13:14:51;;;;;;;11.13;5.05;;;;;;;2.26;100.00;101561.47;6225250;28;20057;-71
2022/12/05 13:17:54;;;;;;;10.70;5.18;;;;;;;2.28;100.00;101558.00;6225862;28;20190;-70
2022/12/05 13:21:00;;;;;;;9.65;4.15;;;;;;;2.30;100.00;101557.97;6225418;28;20073;-71
2022/12/05 13:24:04;;;;;;;10.95;4.68;;;;;;;2.29;100.00;101562.31;6225740;28;20094;-71
2022/12/05 13:27:09;;;;;;;10.02;4.40;;;;;;;2.34;100.00;101557.09;6225518;28;20050;-71
2022/12/05 13:30:18;;;;;;;9.15;5.00;;;;;;;2.36;100.00;101551.88;6226435;28;20080;-71
2022/12/05 13:33:29;;;;;;;8.70;4.05;;;;;;;2.39;100.00;101563.09;6217305;28;20057;-71
2022/12/05 13:43:22;;;;;;;10.65;4.28;;;;;;;2.37;100.00;101564.88;6224274;28;20137;-72
2022/12/05 13:46:28;;;;;;;8.98;4.18;;;;;;;2.42;100.00;101563.09;6214208;28;20537;-71
2022/12/05 13:49:37;;;;;;;8.55;5.05;;;;;;;2.41;100.00;101566.56;6216784;28;20049;-71
2022/12/05 13:52:44;;;;;;;9.57;4.65;;;;;;;2.44;100.00;101557.88;6224530;28;20046;-72
2022/12/05 13:55:57;;;;;;;10.05;5.28;;;;;;;2.46;100.00;101569.13;6224866;28;20053;-70
2022/12/05 13:58:59;;;;;;;8.65;3.88;;;;;;;2.46;100.00;101564.81;6216205;28;20046;-72
2022/12/05 14:02:00;;;;;;;7.43;3.40;;;;;;;2.42;100.00;101570.88;6224865;28;20061;-72
2022/12/05 14:05:52;;;;;;;8.35;3.83;;;;;;;2.41;100.00;101569.16;6224240;28;20050;-71
2022/12/05 14:08:54;;;;;;;9.18;4.82;;;;;;;2.42;100.00;101568.28;6224301;28;20050;-72
2022/12/05 14:12:30;;;;;;;11.32;4.28;;;;;;;2.39;100.00;101570.88;6224429;28;20085;-70
2022/12/05 14:15:35;;;;;;;10.48;4.53;;;;;;;2.36;100.00;101563.13;6148862;29;20046;-72
2022/12/05 14:18:48;;;;;;;10.75;3.95;;;;;;;2.31;100.00;101561.44;6141380;29;20422;-70
2022/12/05 14:22:02;;;;;;;7.28;3.78;;;;;;;2.31;100.00;101570.06;6224047;28;20421;-72
2022/12/05 14:25:11;;;;;;;13.82;4.40;;;;;;;2.26;100.00;101564.91;6224118;28;20426;-72
2022/12/05 14:28:25;;;;;;;9.50;4.68;;;;;;;2.32;100.00;101565.72;6224335;28;20053;-71
2022/12/05 14:31:39;;;;;;;10.20;4.07;;;;;;;2.30;100.00;101568.34;6223762;28;20061;-71